Terminal Aerodrome Forecast
Issued by NWS

Home | Current Version | Previous Version | Text Only | Print | Product List | Glossary On
Versions: 1 2 3 4 5 6 7 8 9 10 11 12
000
FTUS46 KOTX 172327
TAFMWH
TAF
KMWH 172327Z 1800/1824 24006KT P6SM SKC
     FM180400 18003KT P6SM SKC
     FM181800 22010KT P6SM SCT250
     FM182300 25013G20KT P6SM SCT250=

USA.gov is the U.S. government's official web portal to all federal, state and local government web resources and services.